createdAt,value
2019-05-10T00:00:35.336Z,99999.91
2019-05-10T00:03:21.533Z,99998.48
2019-05-10T00:06:07.526Z,99999.16
2019-05-10T00:08:47.378Z,100000.65
2019-05-10T00:11:20.964Z,100004.81
2019-05-10T00:13:53.852Z,100002.38
2019-05-10T00:16:22.732Z,100004.75
2019-05-10T00:18:51.604Z,100001.98
2019-05-10T00:21:20.042Z,100001.02
2019-05-10T00:23:48.506Z,100003.84
2019-05-10T00:26:17.015Z,99998.63
2019-05-10T00:28:45.724Z,100007.63
2019-05-10T00:31:14.157Z,100004.55
2019-05-10T00:33:42.691Z,100001.52
2019-05-10T00:36:11.411Z,100002.25
2019-05-10T00:38:40.144Z,100001.05
2019-05-10T00:41:08.871Z,100002.83
2019-05-10T00:43:37.316Z,99998.34
2019-05-10T00:46:05.815Z,99999.52
2019-05-10T00:48:34.351Z,99999.55
2019-05-10T00:51:02.813Z,99992.33
2019-05-10T00:53:31.237Z,99991.98
2019-05-10T00:55:59.774Z,99993.83
2019-05-10T00:58:28.196Z,99996.26
2019-05-10T01:00:56.633Z,99997.42
2019-05-10T01:03:25.361Z,99995.61
2019-05-10T01:05:53.866Z,100005.52
2019-05-10T01:08:22.299Z,100009.70
2019-05-10T01:10:51.074Z,100013.60
2019-05-10T01:13:19.512Z,100013.53
2019-05-10T01:15:47.973Z,100022.89
2019-05-10T01:18:16.405Z,100027.33
2019-05-10T01:20:44.982Z,100027.02
2019-05-10T01:23:13.670Z,100026.72
2019-05-10T01:25:42.109Z,100030.73
2019-05-10T01:28:10.529Z,100026.41
2019-05-10T01:30:38.952Z,100028.48
2019-05-10T01:33:07.645Z,100031.35
2019-05-10T01:35:36.059Z,100027.80
2019-05-10T01:38:04.481Z,100038.08
2019-05-10T01:40:33.063Z,100038.73
2019-05-10T01:43:01.493Z,100034.31
2019-05-10T01:45:29.995Z,100041.72
2019-05-10T01:47:58.822Z,100041.14
2019-05-10T01:50:27.250Z,100043.20
2019-05-10T01:52:55.704Z,100045.88
2019-05-10T01:55:24.375Z,100048.75
2019-05-10T01:57:53.201Z,100053.59
2019-05-10T02:00:22.208Z,100051.53
2019-05-10T02:02:50.832Z,100050.50
2019-05-10T02:05:20.028Z,100056.95
2019-05-10T02:07:48.488Z,100061.50
2019-05-10T02:10:17.100Z,100057.27
2019-05-10T02:12:45.543Z,100059.21
2019-05-10T02:15:14.320Z,100059.71
2019-05-10T02:17:42.929Z,100062.69
2019-05-10T02:20:12.327Z,100062.69
2019-05-10T02:22:40.903Z,100067.53
2019-05-10T02:25:09.624Z,100065.36
2019-05-10T02:27:38.130Z,100064.02
2019-05-10T02:30:08.115Z,100071.02
2019-05-10T02:32:36.579Z,100077.92
2019-05-10T02:35:07.180Z,100082.13
2019-05-10T02:37:35.602Z,100084.23
2019-05-10T02:40:05.501Z,100083.31
2019-05-10T02:42:34.215Z,100084.03
2019-05-10T02:45:02.944Z,100089.50
2019-05-10T02:47:31.902Z,100090.72
2019-05-10T02:50:00.360Z,100090.94
2019-05-10T02:52:28.786Z,100095.98
2019-05-10T02:54:57.413Z,100095.67
2019-05-10T02:57:26.695Z,100097.32
2019-05-10T02:59:55.772Z,100105.34
2019-05-10T03:02:25.048Z,100104.81
2019-05-10T03:04:54.533Z,100104.31
2019-05-10T03:07:25.739Z,100106.37
2019-05-10T03:09:54.524Z,100104.73
2019-05-10T03:12:24.734Z,100113.77
2019-05-10T03:14:55.688Z,100111.83
2019-05-10T03:17:25.540Z,100116.87
2019-05-10T03:19:55.101Z,100118.92
2019-05-10T03:22:25.505Z,100122.31
2019-05-10T03:24:54.142Z,100127.66
2019-05-10T03:27:22.600Z,100126.02
2019-05-10T03:29:51.720Z,100139.08
2019-05-10T03:32:20.961Z,100133.95
2019-05-10T03:34:49.731Z,100135.79
2019-05-10T03:37:18.578Z,100137.12
2019-05-10T03:39:47.420Z,100135.79
2019-05-10T03:42:15.907Z,100139.08
2019-05-10T03:44:44.614Z,100135.68
2019-05-10T03:47:13.250Z,100139.58
2019-05-10T03:49:41.699Z,100138.05
2019-05-10T03:52:10.151Z,100143.17
2019-05-10T03:54:38.709Z,100144.41
2019-05-10T03:57:13.959Z,100150.98
2019-05-10T03:59:37.529Z,100157.25
2019-05-10T04:02:06.065Z,100151.18
2019-05-10T04:04:34.935Z,100151.18
2019-05-10T04:07:03.552Z,100156.83
2019-05-10T04:09:32.108Z,100157.64
2019-05-10T04:12:00.562Z,100152.09
2019-05-10T04:14:28.984Z,100152.41
2019-05-10T04:16:57.444Z,100151.34
2019-05-10T04:19:25.914Z,100158.95
2019-05-10T04:21:54.633Z,100159.37
2019-05-10T04:24:23.198Z,100160.78
2019-05-10T04:26:51.626Z,100166.14
2019-05-10T04:29:20.089Z,100162.43
2019-05-10T04:31:48.565Z,100167.47
2019-05-10T04:34:17.563Z,100171.18
2019-05-10T04:36:46.171Z,100182.18
2019-05-10T04:39:14.626Z,100180.13
2019-05-10T04:41:43.324Z,100175.69
2019-05-10T04:44:11.786Z,100180.54
2019-05-10T04:46:40.228Z,100185.28
2019-05-10T04:49:08.709Z,100180.53
2019-05-10T04:51:37.344Z,100178.59
2019-05-10T04:54:05.774Z,100179.31
2019-05-10T04:56:34.297Z,100185.07
2019-05-10T04:59:02.838Z,100186.02
2019-05-10T05:01:31.550Z,100189.22
2019-05-10T05:03:59.987Z,100189.22
2019-05-10T05:06:28.755Z,100191.90
2019-05-10T05:08:57.279Z,100192.92
2019-05-10T05:11:25.718Z,100201.98
2019-05-10T05:13:54.316Z,100197.02
2019-05-10T05:16:22.846Z,100198.44
2019-05-10T05:18:51.285Z,100203.06
2019-05-10T05:21:20.059Z,100200.28
2019-05-10T05:23:48.693Z,100204.41
2019-05-10T05:26:17.164Z,100208.51
2019-05-10T05:28:45.701Z,100210.16
2019-05-10T05:31:14.174Z,100205.42
2019-05-10T05:33:42.614Z,100210.34
2019-05-10T05:36:11.578Z,100207.26
2019-05-10T05:38:46.445Z,100215.67
2019-05-10T05:41:10.163Z,100215.06
2019-05-10T05:43:45.562Z,100223.55
2019-05-10T05:46:08.811Z,100222.11
2019-05-10T05:48:40.486Z,100222.61
2019-05-10T05:51:07.878Z,100225.17
2019-05-10T05:53:42.572Z,100226.70
2019-05-10T05:56:12.629Z,100232.97
2019-05-10T05:58:37.943Z,100233.16
2019-05-10T06:01:07.518Z,100235.08
2019-05-10T06:03:35.996Z,100243.11
2019-05-10T06:06:15.494Z,100243.34
2019-05-10T06:08:34.996Z,100251.28
2019-05-10T06:11:03.449Z,100250.37
2019-05-10T06:13:32.589Z,100252.85
2019-05-10T06:16:06.375Z,100254.00
2019-05-10T06:18:31.424Z,100258.42
2019-05-10T06:20:59.889Z,100257.31
2019-05-10T06:23:29.062Z,100257.09
2019-05-10T06:25:58.569Z,100263.16
2019-05-10T06:28:56.260Z,100259.27
2019-05-10T06:30:57.535Z,100261.63
2019-05-10T06:33:26.068Z,100264.61
2019-05-10T06:35:54.573Z,100267.79
2019-05-10T06:38:23.211Z,100271.28
2019-05-10T06:40:51.686Z,100269.94
2019-05-10T06:43:20.214Z,100273.95
2019-05-10T06:45:52.556Z,100276.94
2019-05-10T06:48:26.005Z,100283.32
2019-05-10T06:50:49.124Z,100289.89
2019-05-10T06:53:17.554Z,100294.24
2019-05-10T06:55:46.312Z,100298.78
2019-05-10T06:58:14.735Z,100298.61
2019-05-10T07:00:45.411Z,100301.28
2019-05-10T07:03:13.325Z,100303.73
2019-05-10T07:05:41.854Z,100302.89
2019-05-10T07:08:19.641Z,100309.72
2019-05-10T07:10:40.566Z,100306.00
2019-05-10T07:13:09.400Z,100309.62
2019-05-10T07:15:42.385Z,100317.75
2019-05-10T07:18:08.003Z,100321.45
2019-05-10T07:20:36.531Z,100319.91
2019-05-10T07:23:06.080Z,100329.67
2019-05-10T07:25:42.858Z,100329.27
2019-05-10T07:28:09.338Z,100329.16
2019-05-10T07:30:41.542Z,100328.14
2019-05-10T07:33:08.394Z,100335.03
2019-05-10T07:35:38.637Z,100335.84
2019-05-10T07:38:07.072Z,100336.99
2019-05-10T07:40:35.609Z,100339.67
2019-05-10T07:43:04.214Z,100342.03
2019-05-10T07:45:32.739Z,100340.69
2019-05-10T07:48:02.369Z,100343.98
2019-05-10T07:50:31.556Z,100346.97
2019-05-10T07:53:00.014Z,100345.41
2019-05-10T07:55:30.033Z,100348.62
2019-05-10T07:58:04.832Z,100349.20
2019-05-10T08:00:29.271Z,100349.42
2019-05-10T08:03:07.589Z,100354.16
2019-05-10T08:05:29.676Z,100354.89
2019-05-10T08:07:58.992Z,100355.28
2019-05-10T08:10:28.935Z,100361.75
2019-05-10T08:12:59.622Z,100366.02
2019-05-10T08:15:30.535Z,100365.47
2019-05-10T08:17:58.614Z,100369.69
2019-05-10T08:20:41.474Z,100374.94
2019-05-10T08:22:57.549Z,100373.45
2019-05-10T08:25:28.949Z,100372.37
2019-05-10T08:27:56.543Z,100382.89
2019-05-10T08:30:51.896Z,100380.95
2019-05-10T08:33:14.371Z,100382.83
2019-05-10T08:35:46.046Z,100388.21
2019-05-10T08:38:13.503Z,100395.23
2019-05-10T08:40:42.977Z,100391.94
2019-05-10T08:43:15.597Z,100395.67
2019-05-10T08:45:44.878Z,100402.47
2019-05-10T08:48:12.724Z,100405.25
2019-05-10T08:50:53.343Z,100404.77
2019-05-10T08:53:16.311Z,100404.88
2019-05-10T08:55:43.299Z,100414.34
2019-05-10T08:58:12.506Z,100420.42
2019-05-10T09:00:53.803Z,100419.19
2019-05-10T09:03:18.083Z,100430.09
2019-05-10T09:05:43.231Z,100434.61
2019-05-10T09:08:19.499Z,100443.87
2019-05-10T09:10:42.351Z,100455.48
2019-05-10T09:13:12.913Z,100457.09
2019-05-10T09:15:51.344Z,100462.75
2019-05-10T09:18:12.771Z,100470.63
2019-05-10T09:20:42.103Z,100465.77
2019-05-10T09:23:17.881Z,100473.36
2019-05-10T09:25:42.584Z,100475.49
2019-05-10T09:28:16.551Z,100491.18
2019-05-10T09:30:56.429Z,100478.84
2019-05-10T09:33:14.218Z,100483.73
2019-05-10T09:35:46.819Z,100488.27
2019-05-10T09:38:12.708Z,100498.25
2019-05-10T09:40:50.691Z,100494.56
2019-05-10T09:43:12.491Z,100504.49
2019-05-10T09:45:42.364Z,100505.94
2019-05-10T09:48:12.091Z,100511.05
2019-05-10T09:50:46.521Z,100512.39
2019-05-10T09:53:13.528Z,100513.55
2019-05-10T09:55:45.567Z,100518.67
2019-05-10T09:58:11.444Z,100523.53
2019-05-10T10:00:40.113Z,100521.80
2019-05-10T10:03:08.693Z,100529.61
2019-05-10T10:05:39.796Z,100531.71
2019-05-10T10:08:09.117Z,100534.21
2019-05-10T10:10:37.649Z,100533.41
2019-05-10T10:13:12.038Z,100535.87
2019-05-10T10:15:37.292Z,100544.12
2019-05-10T10:18:06.343Z,100545.67
2019-05-10T10:20:40.663Z,100548.97
2019-05-10T10:23:07.266Z,100543.72
2019-05-10T10:25:40.641Z,100551.56
2019-05-10T10:28:08.227Z,100557.31
2019-05-10T10:30:38.127Z,100560.58
2019-05-10T10:33:11.515Z,100569.41
2019-05-10T10:35:37.747Z,100571.27
2019-05-10T10:38:08.077Z,100575.34
2019-05-10T10:40:44.057Z,100577.58
2019-05-10T10:43:07.688Z,100574.41
2019-05-10T10:45:37.727Z,100577.19
2019-05-10T10:48:08.511Z,100580.58
2019-05-10T10:50:36.518Z,100581.65
2019-05-10T10:53:04.923Z,100581.25
2019-05-10T10:55:39.372Z,100585.14
2019-05-10T10:58:07.139Z,100595.76
2019-05-10T11:00:39.028Z,100601.73
2019-05-10T11:03:06.911Z,100602.53
2019-05-10T11:05:35.460Z,100613.36
2019-05-10T11:08:04.211Z,100609.11
2019-05-10T11:10:33.288Z,100615.56
2019-05-10T11:13:10.646Z,100621.84
2019-05-10T11:15:35.797Z,100624.07
2019-05-10T11:18:02.722Z,100626.02
2019-05-10T11:20:31.912Z,100629.27
2019-05-10T11:23:00.450Z,100627.52
2019-05-10T11:25:29.126Z,100631.21
2019-05-10T11:28:00.969Z,100628.95
2019-05-10T11:30:27.888Z,100630.84
2019-05-10T11:32:56.645Z,100634.19
2019-05-10T11:35:31.003Z,100624.53
2019-05-10T11:37:55.517Z,100631.25
2019-05-10T11:40:30.790Z,100640.05
2019-05-10T11:42:54.216Z,100645.41
2019-05-10T11:45:26.009Z,100647.22
2019-05-10T11:47:58.724Z,100650.28
2019-05-10T11:52:53.858Z,100655.44
2019-05-10T11:55:22.981Z,100661.04
2019-05-10T11:58:02.046Z,100664.53
2019-05-10T11:59:05.051Z,100656.40
2019-05-10T12:00:29.067Z,100668.38
2019-05-10T12:03:06.979Z,100661.77
2019-05-10T12:05:26.303Z,100679.46
2019-05-10T12:07:54.674Z,100673.72
2019-05-10T12:10:25.656Z,100678.29
2019-05-10T12:13:06.035Z,100688.07
2019-05-10T12:15:25.575Z,100687.97
2019-05-10T12:17:59.210Z,100695.74
2019-05-10T12:20:39.116Z,100695.74
2019-05-10T12:22:54.899Z,100696.64
2019-05-10T12:26:16.033Z,100695.73
2019-05-10T12:27:53.656Z,100696.23
2019-05-10T12:30:22.360Z,100694.34
2019-05-10T12:32:56.151Z,100699.95
2019-05-10T12:35:21.391Z,100700.31
2019-05-10T12:37:54.162Z,100705.22
2019-05-10T12:40:23.838Z,100697.12
2019-05-10T12:42:50.744Z,100709.71
2019-05-10T12:45:23.135Z,100705.36
2019-05-10T12:47:51.689Z,100713.38
2019-05-10T12:50:20.718Z,100714.81
2019-05-10T12:53:01.880Z,100718.56
2019-05-10T12:55:19.604Z,100727.12
2019-05-10T12:57:48.070Z,100724.75
2019-05-10T13:00:17.030Z,100732.17
2019-05-10T13:02:51.304Z,100736.29
2019-05-10T13:05:16.231Z,100744.23
2019-05-10T13:07:44.695Z,100747.94
2019-05-10T13:10:13.617Z,100747.64
2019-05-10T13:12:47.332Z,100748.58
2019-05-10T13:15:13.122Z,100760.11
2019-05-10T13:17:50.661Z,100767.44
2019-05-10T13:20:12.788Z,100766.64
2019-05-10T13:22:42.698Z,100770.94
2019-05-10T13:25:11.599Z,100773.19
2019-05-10T13:27:43.198Z,100780.47
2019-05-10T13:30:12.221Z,100780.55
2019-05-10T13:32:40.743Z,100782.51
2019-05-10T13:35:09.716Z,100786.05
2019-05-10T13:37:38.143Z,100791.67
2019-05-10T13:40:08.192Z,100792.52
2019-05-10T13:42:43.071Z,100796.94
2019-05-10T13:45:07.853Z,100797.53
2019-05-10T13:47:36.314Z,100800.24
2019-05-10T13:50:06.380Z,100798.18
2019-05-10T13:52:40.890Z,100795.42
2019-05-10T13:55:06.831Z,100807.28
2019-05-10T13:57:35.288Z,100800.36
2019-05-10T14:00:06.392Z,100812.33
2019-05-10T14:02:35.068Z,100807.86
2019-05-10T14:05:04.073Z,100814.27
2019-05-10T14:07:32.493Z,100818.30
2019-05-10T14:10:01.054Z,100819.18
2019-05-10T14:12:29.518Z,100807.23
2019-05-10T14:15:02.375Z,100819.75
2019-05-10T14:17:28.231Z,100827.52
2019-05-10T14:19:56.723Z,100834.14
2019-05-10T14:22:25.331Z,100842.02
2019-05-10T14:24:58.885Z,100834.59
2019-05-10T14:27:23.939Z,100837.73
2019-05-10T14:29:52.437Z,100838.67
2019-05-10T14:32:20.973Z,100842.23
2019-05-10T14:34:49.411Z,100839.98
2019-05-10T14:37:19.710Z,100846.30
2019-05-10T14:39:48.004Z,100850.30
2019-05-10T14:42:16.417Z,100841.05
2019-05-10T14:44:44.882Z,100847.98
2019-05-10T14:47:13.312Z,100843.83
2019-05-10T14:49:46.220Z,100861.39
2019-05-10T14:52:12.006Z,100862.81
2019-05-10T14:54:43.750Z,100859.94
2019-05-10T14:57:10.691Z,100857.86
2019-05-10T14:59:39.165Z,100860.89
2019-05-10T15:02:07.744Z,100876.59
2019-05-10T15:04:45.224Z,100867.69
2019-05-10T15:07:08.703Z,100866.70
2019-05-10T15:09:36.955Z,100867.09
2019-05-10T15:12:10.117Z,100878.13
2019-05-10T15:14:35.755Z,100877.53
2019-05-10T15:17:04.300Z,100882.38
2019-05-10T15:19:32.730Z,100881.83
2019-05-10T15:22:01.302Z,100901.98
2019-05-10T15:24:29.754Z,100892.55
2019-05-10T15:26:58.376Z,100898.39
2019-05-10T15:29:26.849Z,100897.03
2019-05-10T15:31:55.640Z,100897.91
2019-05-10T15:34:24.096Z,100894.83
2019-05-10T15:36:52.787Z,100898.69
2019-05-10T15:39:23.130Z,100905.27
2019-05-10T15:41:53.646Z,100910.16
2019-05-10T15:44:30.225Z,100910.76
2019-05-10T15:46:52.123Z,100904.70
2019-05-10T15:49:24.312Z,100911.08
2019-05-10T15:52:00.545Z,100908.63
2019-05-10T15:54:21.524Z,100906.73
2019-05-10T15:56:50.005Z,100912.58
2019-05-10T15:59:23.831Z,100909.77
2019-05-10T16:01:48.711Z,100913.77
2019-05-10T16:04:17.138Z,100924.16
2019-05-10T16:06:45.820Z,100928.37
2019-05-10T16:09:19.125Z,100929.37
2019-05-10T16:11:44.560Z,100938.59
2019-05-10T16:14:13.025Z,100936.90
2019-05-10T16:16:41.471Z,100943.47
2019-05-10T16:19:12.956Z,100946.78
2019-05-10T16:21:40.087Z,100958.84
2019-05-10T16:24:08.566Z,100957.84
2019-05-10T16:26:37.001Z,100954.70
2019-05-10T16:29:05.699Z,100959.70
2019-05-10T16:31:34.942Z,100958.50
2019-05-10T16:34:03.422Z,100955.63
2019-05-10T16:36:31.875Z,100963.38
2019-05-10T16:39:01.801Z,100968.67
2019-05-10T16:41:30.630Z,100960.61
2019-05-10T16:44:00.197Z,100963.96
2019-05-10T16:46:28.860Z,100964.17
2019-05-10T16:48:57.297Z,100966.05
2019-05-10T16:51:26.113Z,100971.83
2019-05-10T16:53:54.527Z,100972.94
2019-05-10T16:56:22.966Z,100975.13
2019-05-10T16:58:53.222Z,100978.45
2019-05-10T17:01:25.156Z,100974.31
2019-05-10T17:03:59.684Z,100977.00
2019-05-10T17:06:22.347Z,100978.16
2019-05-10T17:08:50.986Z,100977.22
2019-05-10T17:11:19.451Z,100975.06
2019-05-10T17:13:47.895Z,100980.97
2019-05-10T17:16:17.455Z,100982.37
2019-05-10T17:18:49.704Z,100990.03
2019-05-10T17:21:16.718Z,100993.75
2019-05-10T17:23:46.955Z,100995.18
2019-05-10T17:26:15.503Z,100993.30
2019-05-10T17:28:43.960Z,100993.13
2019-05-10T17:31:12.403Z,101002.80
2019-05-10T17:33:42.819Z,100999.83
2019-05-10T17:36:14.414Z,101005.52
2019-05-10T17:38:41.638Z,100999.84
2019-05-10T17:41:10.084Z,101002.66
2019-05-10T17:43:38.647Z,101006.37
2019-05-10T17:46:07.445Z,101004.70
2019-05-10T17:48:40.843Z,101006.77
2019-05-10T17:51:06.279Z,101013.80
2019-05-10T17:53:34.728Z,101006.05
2019-05-10T17:56:03.365Z,101010.39
2019-05-10T17:58:33.957Z,101010.09
2019-05-10T18:01:02.152Z,101011.67
2019-05-10T18:03:30.585Z,101024.19
2019-05-10T18:05:59.270Z,101018.66
2019-05-10T18:08:27.867Z,101019.45
2019-05-10T18:10:57.182Z,101024.81
2019-05-10T18:13:26.733Z,101012.81
2019-05-10T18:15:55.153Z,101019.64
2019-05-10T18:18:23.634Z,101014.93
2019-05-10T18:20:52.388Z,101015.48
2019-05-10T18:23:22.777Z,101016.01
2019-05-10T18:25:52.567Z,101017.22
2019-05-10T18:28:21.895Z,101019.06
2019-05-10T18:30:50.433Z,101025.21
2019-05-10T18:33:19.059Z,101023.63
2019-05-10T18:35:52.649Z,101027.66
2019-05-10T18:38:19.332Z,101029.36
2019-05-10T18:40:47.764Z,101032.16
2019-05-10T18:43:16.271Z,101032.20
2019-05-10T18:45:44.735Z,101047.06
2019-05-10T18:48:13.403Z,101041.53
2019-05-10T18:50:45.484Z,101048.01
2019-05-10T18:53:12.121Z,101049.73
2019-05-10T18:55:40.624Z,101049.36
2019-05-10T18:58:09.146Z,101057.52
2019-05-10T19:00:40.219Z,101058.36
2019-05-10T19:03:07.735Z,101059.49
2019-05-10T19:05:36.267Z,101065.59
2019-05-10T19:08:06.007Z,101059.05
2019-05-10T19:10:35.069Z,101064.81
2019-05-10T19:13:05.332Z,101063.22
2019-05-10T19:15:33.691Z,101066.47
2019-05-10T19:18:02.164Z,101069.03
2019-05-10T19:20:30.883Z,101069.27
2019-05-10T19:22:59.324Z,101070.82
2019-05-10T19:25:27.812Z,101077.24
2019-05-10T19:27:56.495Z,101078.42
2019-05-10T19:30:26.038Z,101082.31
2019-05-10T19:32:56.464Z,101083.55
2019-05-10T19:35:29.961Z,101088.23
2019-05-10T19:37:54.993Z,101088.41
2019-05-10T19:40:23.674Z,101093.91
2019-05-10T19:42:52.162Z,101096.64
2019-05-10T19:45:21.142Z,101099.33
2019-05-10T19:47:55.432Z,101091.03
2019-05-10T19:50:24.298Z,101101.55
2019-05-10T19:52:50.430Z,101099.91
2019-05-10T19:55:21.515Z,101097.26
2019-05-10T19:57:54.066Z,101099.97
2019-05-10T20:00:19.890Z,101104.30
2019-05-10T20:02:48.464Z,101097.32
2019-05-10T20:05:16.990Z,101104.83
2019-05-10T20:07:46.633Z,101103.34
2019-05-10T20:10:16.098Z,101112.99
2019-05-10T20:12:44.602Z,101112.98
2019-05-10T20:15:13.756Z,101114.64
2019-05-10T20:17:42.355Z,101116.00
2019-05-10T20:20:11.034Z,101115.66
2019-05-10T20:22:39.457Z,101117.64
2019-05-10T20:25:08.349Z,101120.81
2019-05-10T20:27:36.770Z,101124.28
2019-05-10T20:30:07.666Z,101129.59
2019-05-10T20:32:36.185Z,101126.92
2019-05-10T20:35:06.831Z,101125.27
2019-05-10T20:37:35.264Z,101134.23
2019-05-10T20:40:04.562Z,101134.55
2019-05-10T20:42:33.038Z,101134.19
2019-05-10T20:45:07.691Z,101136.50
2019-05-10T20:47:31.628Z,101133.45
2019-05-10T20:50:00.367Z,101131.16
2019-05-10T20:52:28.811Z,101136.27
2019-05-10T20:54:57.556Z,101141.42
2019-05-10T20:57:26.002Z,101140.75
2019-05-10T20:59:54.704Z,101146.21
2019-05-10T21:02:23.401Z,101140.40
2019-05-10T21:04:51.833Z,101144.05
2019-05-10T21:07:20.265Z,101144.03
2019-05-10T21:09:48.864Z,101138.70
2019-05-10T21:12:17.300Z,101142.98
2019-05-10T21:14:45.724Z,101148.64
2019-05-10T21:17:14.175Z,101144.31
2019-05-10T21:19:42.624Z,101145.63
2019-05-10T21:22:11.410Z,101148.59
2019-05-10T21:24:39.855Z,101151.56
2019-05-10T21:27:08.342Z,101147.89
2019-05-10T21:29:36.783Z,101146.53
2019-05-10T21:32:05.851Z,101151.82
2019-05-10T21:34:34.583Z,101161.09
2019-05-10T21:37:02.995Z,101163.06
2019-05-10T21:39:31.706Z,101166.20
2019-05-10T21:42:00.140Z,101165.19
2019-05-10T21:44:28.875Z,101163.66
2019-05-10T21:46:57.321Z,101165.94
2019-05-10T21:49:25.788Z,101165.74
2019-05-10T21:51:54.215Z,101174.15
2019-05-10T21:54:22.830Z,101179.77
2019-05-10T21:56:51.399Z,101177.45
2019-05-10T21:59:19.812Z,101180.58
2019-05-10T22:01:48.587Z,101177.75
2019-05-10T22:04:17.311Z,101180.20
2019-05-10T22:06:45.742Z,101179.34
2019-05-10T22:09:14.479Z,101180.64
2019-05-10T22:11:42.903Z,101176.63
2019-05-10T22:14:11.340Z,101190.19
2019-05-10T22:16:39.965Z,101193.18
2019-05-10T22:19:08.404Z,101198.15
2019-05-10T22:21:36.829Z,101205.12
2019-05-10T22:24:05.672Z,101204.78
2019-05-10T22:26:34.100Z,101203.79
2019-05-10T22:29:02.794Z,101198.31
2019-05-10T22:31:31.227Z,101201.78
2019-05-10T22:33:59.664Z,101194.81
2019-05-10T22:36:28.106Z,101196.78
2019-05-10T22:39:06.699Z,101191.78
2019-05-10T22:41:27.061Z,101179.28
2019-05-10T22:43:55.475Z,101174.75
2019-05-10T22:46:24.044Z,101169.66
2019-05-10T22:48:52.474Z,101169.40
2019-05-10T22:51:20.898Z,101169.52
2019-05-10T22:53:59.417Z,101172.81
2019-05-10T22:56:19.859Z,101182.91
2019-05-10T22:58:48.285Z,101183.41
2019-05-10T23:01:16.757Z,101177.42
2019-05-10T23:03:45.182Z,101179.05
2019-05-10T23:06:13.621Z,101183.31
2019-05-10T23:08:42.310Z,101189.59
2019-05-10T23:11:10.744Z,101184.94
2019-05-10T23:13:39.443Z,101180.09
2019-05-10T23:16:07.940Z,101185.98
2019-05-10T23:18:36.362Z,101182.81
2019-05-10T23:21:04.798Z,101179.47
2019-05-10T23:23:33.240Z,101173.14
2019-05-10T23:26:01.684Z,101180.40
2019-05-10T23:28:30.100Z,101176.84
2019-05-10T23:30:58.624Z,101188.24
2019-05-10T23:33:27.063Z,101187.55
2019-05-10T23:35:55.509Z,101186.39
2019-05-10T23:38:24.508Z,101190.02
2019-05-10T23:40:53.148Z,101191.47
2019-05-10T23:43:21.667Z,101194.75
2019-05-10T23:45:50.110Z,101192.11
2019-05-10T23:48:18.548Z,101194.06
2019-05-10T23:50:47.011Z,101189.69
2019-05-10T23:53:15.607Z,101184.38
2019-05-10T23:55:44.058Z,101193.77
2019-05-10T23:58:12.709Z,101196.92
